sensor_id;sensor_type;location;lat;lon;timestamp;P1;durP1;ratioP1;P2;durP2;ratioP2
6452;SDS011;3259;51.080;13.712;2023-08-06T00:02:05;2.22;;;1.75;;
6452;SDS011;3259;51.080;13.712;2023-08-06T00:04:54;1.55;;;1.40;;
6452;SDS011;3259;51.080;13.712;2023-08-06T00:07:44;1.48;;;1.38;;
6452;SDS011;3259;51.080;13.712;2023-08-06T00:10:32;2.20;;;1.50;;
6452;SDS011;3259;51.080;13.712;2023-08-06T00:13:21;6.90;;;1.65;;
6452;SDS011;3259;51.080;13.712;2023-08-06T00:16:10;1.67;;;1.58;;
6452;SDS011;3259;51.080;13.712;2023-08-06T00:19:00;1.40;;;1.30;;
6452;SDS011;3259;51.080;13.712;2023-08-06T00:21:49;1.70;;;1.60;;
6452;SDS011;3259;51.080;13.712;2023-08-06T00:24:39;3.22;;;1.67;;
6452;SDS011;3259;51.080;13.712;2023-08-06T00:27:28;1.15;;;1.15;;
6452;SDS011;3259;51.080;13.712;2023-08-06T00:30:17;1.60;;;1.50;;
6452;SDS011;3259;51.080;13.712;2023-08-06T00:33:05;2.05;;;1.42;;
6452;SDS011;3259;51.080;13.712;2023-08-06T00:35:54;5.80;;;2.17;;
6452;SDS011;3259;51.080;13.712;2023-08-06T00:38:43;2.88;;;2.15;;
6452;SDS011;3259;51.080;13.712;2023-08-06T00:41:33;2.33;;;2.03;;
6452;SDS011;3259;51.080;13.712;2023-08-06T00:44:22;2.60;;;2.28;;
6452;SDS011;3259;51.080;13.712;2023-08-06T00:47:11;2.72;;;1.70;;
6452;SDS011;3259;51.080;13.712;2023-08-06T00:49:59;2.10;;;1.50;;
6452;SDS011;3259;51.080;13.712;2023-08-06T00:52:48;1.35;;;1.25;;
6452;SDS011;3259;51.080;13.712;2023-08-06T00:55:37;1.23;;;1.23;;
6452;SDS011;3259;51.080;13.712;2023-08-06T00:58:27;1.50;;;1.40;;
6452;SDS011;3259;51.080;13.712;2023-08-06T01:01:16;1.40;;;1.30;;
6452;SDS011;3259;51.080;13.712;2023-08-06T01:04:05;1.50;;;1.40;;
6452;SDS011;3259;51.080;13.712;2023-08-06T01:06:56;1.60;;;1.50;;
6452;SDS011;3259;51.080;13.712;2023-08-06T01:09:57;2.45;;;1.55;;
6452;SDS011;3259;51.080;13.712;2023-08-06T01:12:58;1.60;;;1.48;;
6452;SDS011;3259;51.080;13.712;2023-08-06T01:15:58;4.07;;;1.30;;
6452;SDS011;3259;51.080;13.712;2023-08-06T01:18:48;1.77;;;1.65;;
6452;SDS011;3259;51.080;13.712;2023-08-06T01:21:39;1.40;;;1.30;;
6452;SDS011;3259;51.080;13.712;2023-08-06T01:24:28;2.25;;;1.65;;
6452;SDS011;3259;51.080;13.712;2023-08-06T01:27:19;1.80;;;1.70;;
6452;SDS011;3259;51.080;13.712;2023-08-06T01:30:16;3.20;;;2.13;;
6452;SDS011;3259;51.080;13.712;2023-08-06T01:33:09;3.38;;;1.58;;
6452;SDS011;3259;51.080;13.712;2023-08-06T01:36:04;1.77;;;1.67;;
6452;SDS011;3259;51.080;13.712;2023-08-06T01:38:56;5.38;;;1.83;;
6452;SDS011;3259;51.080;13.712;2023-08-06T01:41:46;2.83;;;1.55;;
6452;SDS011;3259;51.080;13.712;2023-08-06T01:44:34;3.40;;;1.63;;
6452;SDS011;3259;51.080;13.712;2023-08-06T01:47:23;4.05;;;1.63;;
6452;SDS011;3259;51.080;13.712;2023-08-06T01:50:12;2.60;;;2.17;;
6452;SDS011;3259;51.080;13.712;2023-08-06T01:53:01;4.68;;;1.73;;
6452;SDS011;3259;51.080;13.712;2023-08-06T01:55:52;3.47;;;1.90;;
6452;SDS011;3259;51.080;13.712;2023-08-06T01:58:40;1.77;;;1.67;;
6452;SDS011;3259;51.080;13.712;2023-08-06T02:01:29;3.17;;;1.95;;
6452;SDS011;3259;51.080;13.712;2023-08-06T02:04:18;3.08;;;1.80;;
6452;SDS011;3259;51.080;13.712;2023-08-06T02:07:06;1.60;;;1.50;;
6452;SDS011;3259;51.080;13.712;2023-08-06T02:09:55;2.20;;;2.03;;
6452;SDS011;3259;51.080;13.712;2023-08-06T02:12:45;1.88;;;1.77;;
6452;SDS011;3259;51.080;13.712;2023-08-06T02:15:34;1.30;;;1.20;;
6452;SDS011;3259;51.080;13.712;2023-08-06T02:18:22;3.38;;;1.80;;
6452;SDS011;3259;51.080;13.712;2023-08-06T02:21:11;2.30;;;2.20;;
6452;SDS011;3259;51.080;13.712;2023-08-06T02:24:00;2.22;;;1.67;;
6452;SDS011;3259;51.080;13.712;2023-08-06T02:26:48;2.70;;;2.25;;
6452;SDS011;3259;51.080;13.712;2023-08-06T02:29:41;2.95;;;2.22;;
6452;SDS011;3259;51.080;13.712;2023-08-06T02:32:29;2.30;;;1.80;;
6452;SDS011;3259;51.080;13.712;2023-08-06T02:35:19;2.03;;;1.92;;
6452;SDS011;3259;51.080;13.712;2023-08-06T02:38:07;1.58;;;1.48;;
6452;SDS011;3259;51.080;13.712;2023-08-06T02:40:56;1.42;;;1.42;;
6452;SDS011;3259;51.080;13.712;2023-08-06T02:43:45;1.60;;;1.50;;
6452;SDS011;3259;51.080;13.712;2023-08-06T02:46:35;2.75;;;2.53;;
6452;SDS011;3259;51.080;13.712;2023-08-06T02:49:23;3.17;;;2.13;;
6452;SDS011;3259;51.080;13.712;2023-08-06T02:52:12;1.92;;;1.80;;
6452;SDS011;3259;51.080;13.712;2023-08-06T02:55:01;1.30;;;1.23;;
6452;SDS011;3259;51.080;13.712;2023-08-06T02:57:49;3.65;;;1.50;;
6452;SDS011;3259;51.080;13.712;2023-08-06T03:00:38;3.40;;;1.50;;
6452;SDS011;3259;51.080;13.712;2023-08-06T03:03:28;1.13;;;1.13;;
6452;SDS011;3259;51.080;13.712;2023-08-06T03:06:17;1.80;;;1.30;;
6452;SDS011;3259;51.080;13.712;2023-08-06T03:09:06;1.52;;;1.30;;
6452;SDS011;3259;51.080;13.712;2023-08-06T03:11:54;1.52;;;1.42;;
6452;SDS011;3259;51.080;13.712;2023-08-06T03:14:43;1.73;;;1.17;;
6452;SDS011;3259;51.080;13.712;2023-08-06T03:17:32;1.25;;;1.15;;
6452;SDS011;3259;51.080;13.712;2023-08-06T03:20:22;0.98;;;0.98;;
6452;SDS011;3259;51.080;13.712;2023-08-06T03:23:11;2.55;;;1.38;;
6452;SDS011;3259;51.080;13.712;2023-08-06T03:26:00;1.95;;;0.93;;
6452;SDS011;3259;51.080;13.712;2023-08-06T03:28:50;1.33;;;1.23;;
6452;SDS011;3259;51.080;13.712;2023-08-06T03:31:38;0.95;;;0.95;;
6452;SDS011;3259;51.080;13.712;2023-08-06T03:34:27;1.67;;;1.45;;
6452;SDS011;3259;51.080;13.712;2023-08-06T03:37:18;1.45;;;1.45;;
6452;SDS011;3259;51.080;13.712;2023-08-06T03:40:07;1.17;;;0.93;;
6452;SDS011;3259;51.080;13.712;2023-08-06T03:42:56;1.27;;;1.17;;
6452;SDS011;3259;51.080;13.712;2023-08-06T03:45:45;1.60;;;1.50;;
6452;SDS011;3259;51.080;13.712;2023-08-06T03:48:34;1.17;;;1.17;;
6452;SDS011;3259;51.080;13.712;2023-08-06T03:51:22;1.50;;;1.40;;
6452;SDS011;3259;51.080;13.712;2023-08-06T03:54:12;1.70;;;1.60;;
6452;SDS011;3259;51.080;13.712;2023-08-06T03:57:01;1.27;;;1.17;;
6452;SDS011;3259;51.080;13.712;2023-08-06T03:59:50;1.48;;;1.38;;
6452;SDS011;3259;51.080;13.712;2023-08-06T04:02:41;1.15;;;1.15;;
6452;SDS011;3259;51.080;13.712;2023-08-06T04:05:31;2.92;;;1.42;;
6452;SDS011;3259;51.080;13.712;2023-08-06T04:08:20;0.90;;;0.90;;
6452;SDS011;3259;51.080;13.712;2023-08-06T04:11:10;1.48;;;0.90;;
6452;SDS011;3259;51.080;13.712;2023-08-06T04:13:59;1.13;;;1.02;;
6452;SDS011;3259;51.080;13.712;2023-08-06T04:16:48;1.02;;;1.00;;
6452;SDS011;3259;51.080;13.712;2023-08-06T04:19:37;1.15;;;1.10;;
6452;SDS011;3259;51.080;13.712;2023-08-06T04:22:25;0.88;;;0.88;;
6452;SDS011;3259;51.080;13.712;2023-08-06T04:25:14;1.08;;;1.05;;
6452;SDS011;3259;51.080;13.712;2023-08-06T04:28:08;1.08;;;0.98;;
6452;SDS011;3259;51.080;13.712;2023-08-06T04:30:58;0.80;;;0.80;;
6452;SDS011;3259;51.080;13.712;2023-08-06T04:33:47;0.68;;;0.68;;
6452;SDS011;3259;51.080;13.712;2023-08-06T04:36:36;1.23;;;1.13;;
6452;SDS011;3259;51.080;13.712;2023-08-06T04:39:25;0.82;;;0.82;;
6452;SDS011;3259;51.080;13.712;2023-08-06T04:42:14;1.65;;;0.90;;
6452;SDS011;3259;51.080;13.712;2023-08-06T04:45:06;0.95;;;0.63;;
6452;SDS011;3259;51.080;13.712;2023-08-06T04:47:56;1.00;;;1.00;;
6452;SDS011;3259;51.080;13.712;2023-08-06T04:50:45;0.47;;;0.47;;
6452;SDS011;3259;51.080;13.712;2023-08-06T04:53:35;1.63;;;1.10;;
6452;SDS011;3259;51.080;13.712;2023-08-06T04:56:24;1.00;;;1.00;;
6452;SDS011;3259;51.080;13.712;2023-08-06T04:59:13;0.88;;;0.88;;
6452;SDS011;3259;51.080;13.712;2023-08-06T05:02:04;1.17;;;0.80;;
6452;SDS011;3259;51.080;13.712;2023-08-06T05:04:53;0.85;;;0.85;;
6452;SDS011;3259;51.080;13.712;2023-08-06T05:07:42;1.13;;;0.90;;
6452;SDS011;3259;51.080;13.712;2023-08-06T05:10:31;0.77;;;0.77;;
6452;SDS011;3259;51.080;13.712;2023-08-06T05:13:20;0.85;;;0.68;;
6452;SDS011;3259;51.080;13.712;2023-08-06T05:16:09;1.65;;;0.63;;
6452;SDS011;3259;51.080;13.712;2023-08-06T05:18:59;1.30;;;1.30;;
6452;SDS011;3259;51.080;13.712;2023-08-06T05:21:48;0.90;;;0.90;;
6452;SDS011;3259;51.080;13.712;2023-08-06T05:24:37;0.85;;;0.82;;
6452;SDS011;3259;51.080;13.712;2023-08-06T05:27:27;1.48;;;0.88;;
6452;SDS011;3259;51.080;13.712;2023-08-06T05:30:16;1.10;;;1.10;;
6452;SDS011;3259;51.080;13.712;2023-08-06T05:33:05;0.95;;;0.95;;
6452;SDS011;3259;51.080;13.712;2023-08-06T05:35:55;0.90;;;0.90;;
6452;SDS011;3259;51.080;13.712;2023-08-06T05:38:44;0.70;;;0.70;;
6452;SDS011;3259;51.080;13.712;2023-08-06T05:41:34;1.20;;;1.10;;
6452;SDS011;3259;51.080;13.712;2023-08-06T05:44:23;0.68;;;0.68;;
6452;SDS011;3259;51.080;13.712;2023-08-06T05:47:12;2.67;;;0.88;;
6452;SDS011;3259;51.080;13.712;2023-08-06T05:50:01;0.73;;;0.73;;
6452;SDS011;3259;51.080;13.712;2023-08-06T05:52:51;1.00;;;1.00;;
6452;SDS011;3259;51.080;13.712;2023-08-06T05:55:41;1.13;;;1.13;;
6452;SDS011;3259;51.080;13.712;2023-08-06T05:58:30;1.35;;;1.25;;
6452;SDS011;3259;51.080;13.712;2023-08-06T06:01:19;3.20;;;0.93;;
6452;SDS011;3259;51.080;13.712;2023-08-06T06:04:08;0.80;;;0.80;;
6452;SDS011;3259;51.080;13.712;2023-08-06T06:06:57;0.70;;;0.70;;
6452;SDS011;3259;51.080;13.712;2023-08-06T06:09:47;2.05;;;1.15;;
6452;SDS011;3259;51.080;13.712;2023-08-06T06:12:38;0.80;;;0.73;;
6452;SDS011;3259;51.080;13.712;2023-08-06T06:15:27;1.08;;;1.02;;
6452;SDS011;3259;51.080;13.712;2023-08-06T06:18:16;1.10;;;1.00;;
6452;SDS011;3259;51.080;13.712;2023-08-06T06:21:05;0.98;;;0.98;;
6452;SDS011;3259;51.080;13.712;2023-08-06T06:23:54;1.77;;;1.20;;
6452;SDS011;3259;51.080;13.712;2023-08-06T06:26:44;1.08;;;1.08;;
6452;SDS011;3259;51.080;13.712;2023-08-06T06:29:34;1.88;;;1.40;;
6452;SDS011;3259;51.080;13.712;2023-08-06T06:32:22;1.60;;;1.40;;
6452;SDS011;3259;51.080;13.712;2023-08-06T06:35:12;2.58;;;1.50;;
6452;SDS011;3259;51.080;13.712;2023-08-06T06:38:01;2.08;;;1.98;;
6452;SDS011;3259;51.080;13.712;2023-08-06T06:40:53;5.38;;;1.63;;
6452;SDS011;3259;51.080;13.712;2023-08-06T06:43:44;1.05;;;1.05;;
6452;SDS011;3259;51.080;13.712;2023-08-06T06:46:33;1.70;;;1.20;;
6452;SDS011;3259;51.080;13.712;2023-08-06T06:49:23;2.05;;;1.58;;
6452;SDS011;3259;51.080;13.712;2023-08-06T06:52:12;2.92;;;1.42;;
6452;SDS011;3259;51.080;13.712;2023-08-06T06:55:01;3.03;;;2.08;;
6452;SDS011;3259;51.080;13.712;2023-08-06T06:57:50;2.72;;;2.33;;
6452;SDS011;3259;51.080;13.712;2023-08-06T07:00:40;2.85;;;2.03;;
6452;SDS011;3259;51.080;13.712;2023-08-06T07:03:29;4.82;;;2.08;;
6452;SDS011;3259;51.080;13.712;2023-08-06T07:06:18;2.60;;;1.90;;
6452;SDS011;3259;51.080;13.712;2023-08-06T07:09:06;1.73;;;1.60;;
6452;SDS011;3259;51.080;13.712;2023-08-06T07:11:55;3.92;;;1.70;;
6452;SDS011;3259;51.080;13.712;2023-08-06T07:14:44;1.92;;;1.45;;
6452;SDS011;3259;51.080;13.712;2023-08-06T07:17:34;2.67;;;1.63;;
6452;SDS011;3259;51.080;13.712;2023-08-06T07:20:22;2.03;;;1.92;;
6452;SDS011;3259;51.080;13.712;2023-08-06T07:23:11;1.95;;;1.70;;
6452;SDS011;3259;51.080;13.712;2023-08-06T07:26:00;2.75;;;1.52;;
6452;SDS011;3259;51.080;13.712;2023-08-06T07:28:49;2.28;;;1.58;;
6452;SDS011;3259;51.080;13.712;2023-08-06T07:31:37;1.80;;;1.73;;
6452;SDS011;3259;51.080;13.712;2023-08-06T07:34:27;1.35;;;1.25;;
6452;SDS011;3259;51.080;13.712;2023-08-06T07:37:16;3.13;;;1.70;;
6452;SDS011;3259;51.080;13.712;2023-08-06T07:40:05;2.35;;;2.10;;
6452;SDS011;3259;51.080;13.712;2023-08-06T07:42:55;1.80;;;1.70;;
6452;SDS011;3259;51.080;13.712;2023-08-06T07:45:44;2.72;;;1.23;;
6452;SDS011;3259;51.080;13.712;2023-08-06T07:48:32;5.68;;;2.08;;
6452;SDS011;3259;51.080;13.712;2023-08-06T07:51:22;4.07;;;1.65;;
6452;SDS011;3259;51.080;13.712;2023-08-06T07:54:11;2.28;;;2.03;;
6452;SDS011;3259;51.080;13.712;2023-08-06T07:57:00;1.20;;;1.10;;
6452;SDS011;3259;51.080;13.712;2023-08-06T07:59:49;2.05;;;1.45;;
6452;SDS011;3259;51.080;13.712;2023-08-06T08:02:40;2.72;;;1.33;;
6452;SDS011;3259;51.080;13.712;2023-08-06T08:05:30;2.67;;;1.50;;
6452;SDS011;3259;51.080;13.712;2023-08-06T08:08:20;1.55;;;1.42;;
6452;SDS011;3259;51.080;13.712;2023-08-06T08:11:09;4.13;;;2.33;;
6452;SDS011;3259;51.080;13.712;2023-08-06T08:13:58;3.60;;;1.92;;
6452;SDS011;3259;51.080;13.712;2023-08-06T08:16:48;2.65;;;1.23;;
6452;SDS011;3259;51.080;13.712;2023-08-06T08:19:37;1.48;;;1.25;;
6452;SDS011;3259;51.080;13.712;2023-08-06T08:22:30;1.73;;;1.27;;
6452;SDS011;3259;51.080;13.712;2023-08-06T08:25:20;2.67;;;1.05;;
6452;SDS011;3259;51.080;13.712;2023-08-06T08:28:09;1.05;;;0.85;;
6452;SDS011;3259;51.080;13.712;2023-08-06T08:30:58;1.92;;;1.08;;
6452;SDS011;3259;51.080;13.712;2023-08-06T08:33:46;1.83;;;1.08;;
6452;SDS011;3259;51.080;13.712;2023-08-06T08:36:37;0.80;;;0.80;;
6452;SDS011;3259;51.080;13.712;2023-08-06T08:39:26;1.20;;;0.85;;
6452;SDS011;3259;51.080;13.712;2023-08-06T08:42:16;3.15;;;1.20;;
6452;SDS011;3259;51.080;13.712;2023-08-06T08:45:06;3.22;;;0.90;;
6452;SDS011;3259;51.080;13.712;2023-08-06T08:48:01;1.95;;;0.98;;
6452;SDS011;3259;51.080;13.712;2023-08-06T08:50:50;1.27;;;0.73;;
6452;SDS011;3259;51.080;13.712;2023-08-06T08:53:39;2.13;;;0.90;;
6452;SDS011;3259;51.080;13.712;2023-08-06T08:56:28;1.45;;;1.05;;
6452;SDS011;3259;51.080;13.712;2023-08-06T08:59:20;1.40;;;1.35;;
6452;SDS011;3259;51.080;13.712;2023-08-06T09:02:09;2.63;;;1.35;;
6452;SDS011;3259;51.080;13.712;2023-08-06T09:05:00;1.58;;;1.10;;
6452;SDS011;3259;51.080;13.712;2023-08-06T09:07:50;1.13;;;0.77;;
6452;SDS011;3259;51.080;13.712;2023-08-06T09:10:41;0.80;;;0.80;;
6452;SDS011;3259;51.080;13.712;2023-08-06T09:13:31;4.43;;;1.27;;
6452;SDS011;3259;51.080;13.712;2023-08-06T09:16:22;0.90;;;0.82;;
6452;SDS011;3259;51.080;13.712;2023-08-06T09:19:11;0.50;;;0.50;;
6452;SDS011;3259;51.080;13.712;2023-08-06T09:22:02;0.82;;;0.70;;
6452;SDS011;3259;51.080;13.712;2023-08-06T09:24:57;16.10;;;1.77;;
6452;SDS011;3259;51.080;13.712;2023-08-06T09:27:46;2.45;;;0.70;;
6452;SDS011;3259;51.080;13.712;2023-08-06T09:30:35;1.77;;;0.93;;
6452;SDS011;3259;51.080;13.712;2023-08-06T09:33:28;2.25;;;1.00;;
6452;SDS011;3259;51.080;13.712;2023-08-06T09:36:17;0.93;;;0.90;;
6452;SDS011;3259;51.080;13.712;2023-08-06T09:39:12;51.35;;;2.72;;
6452;SDS011;3259;51.080;13.712;2023-08-06T09:42:01;11.95;;;2.10;;
6452;SDS011;3259;51.080;13.712;2023-08-06T09:44:51;22.65;;;2.55;;
6452;SDS011;3259;51.080;13.712;2023-08-06T09:47:45;33.03;;;3.08;;
6452;SDS011;3259;51.080;13.712;2023-08-06T09:50:47;10.27;;;1.75;;
6452;SDS011;3259;51.080;13.712;2023-08-06T09:53:38;16.17;;;1.67;;
6452;SDS011;3259;51.080;13.712;2023-08-06T09:56:29;6.65;;;1.50;;
6452;SDS011;3259;51.080;13.712;2023-08-06T09:59:24;85.57;;;6.32;;
6452;SDS011;3259;51.080;13.712;2023-08-06T10:02:13;83.07;;;7.13;;
6452;SDS011;3259;51.080;13.712;2023-08-06T10:05:02;11.30;;;1.52;;
6452;SDS011;3259;51.080;13.712;2023-08-06T10:07:52;9.85;;;1.95;;
6452;SDS011;3259;51.080;13.712;2023-08-06T10:10:42;4.05;;;1.10;;
6452;SDS011;3259;51.080;13.712;2023-08-06T10:13:32;2.40;;;1.00;;
6452;SDS011;3259;51.080;13.712;2023-08-06T10:16:22;1.10;;;1.10;;
6452;SDS011;3259;51.080;13.712;2023-08-06T10:19:12;1.15;;;1.15;;
6452;SDS011;3259;51.080;13.712;2023-08-06T10:22:09;1.02;;;1.00;;
6452;SDS011;3259;51.080;13.712;2023-08-06T10:25:00;3.50;;;1.05;;
6452;SDS011;3259;51.080;13.712;2023-08-06T10:27:54;1.95;;;1.10;;
6452;SDS011;3259;51.080;13.712;2023-08-06T10:30:44;0.98;;;0.98;;
6452;SDS011;3259;51.080;13.712;2023-08-06T10:33:42;0.95;;;0.93;;
6452;SDS011;3259;51.080;13.712;2023-08-06T10:36:32;2.90;;;2.10;;
6452;SDS011;3259;51.080;13.712;2023-08-06T10:39:22;1.63;;;1.50;;
6452;SDS011;3259;51.080;13.712;2023-08-06T10:42:22;0.95;;;0.95;;
6452;SDS011;3259;51.080;13.712;2023-08-06T10:45:16;1.08;;;1.02;;
6452;SDS011;3259;51.080;13.712;2023-08-06T10:48:05;0.98;;;0.98;;
6452;SDS011;3259;51.080;13.712;2023-08-06T10:50:56;1.17;;;1.17;;
6452;SDS011;3259;51.080;13.712;2023-08-06T10:53:45;1.17;;;1.17;;
6452;SDS011;3259;51.080;13.712;2023-08-06T10:56:39;0.93;;;0.93;;
6452;SDS011;3259;51.080;13.712;2023-08-06T10:59:30;1.08;;;0.98;;
6452;SDS011;3259;51.080;13.712;2023-08-06T11:02:19;0.90;;;0.90;;
6452;SDS011;3259;51.080;13.712;2023-08-06T11:05:08;0.68;;;0.68;;
6452;SDS011;3259;51.080;13.712;2023-08-06T11:07:57;1.33;;;0.93;;
6452;SDS011;3259;51.080;13.712;2023-08-06T11:10:46;0.85;;;0.82;;
6452;SDS011;3259;51.080;13.712;2023-08-06T11:13:49;0.80;;;0.80;;
6452;SDS011;3259;51.080;13.712;2023-08-06T11:16:40;1.52;;;0.80;;
6452;SDS011;3259;51.080;13.712;2023-08-06T11:19:29;0.80;;;0.80;;
6452;SDS011;3259;51.080;13.712;2023-08-06T11:22:17;1.33;;;1.20;;
6452;SDS011;3259;51.080;13.712;2023-08-06T11:25:06;4.47;;;1.20;;
6452;SDS011;3259;51.080;13.712;2023-08-06T11:27:55;1.42;;;0.85;;
6452;SDS011;3259;51.080;13.712;2023-08-06T11:30:44;0.80;;;0.80;;
6452;SDS011;3259;51.080;13.712;2023-08-06T11:33:34;2.40;;;0.85;;
6452;SDS011;3259;51.080;13.712;2023-08-06T11:36:29;0.98;;;0.90;;
6452;SDS011;3259;51.080;13.712;2023-08-06T11:39:18;0.95;;;0.77;;
6452;SDS011;3259;51.080;13.712;2023-08-06T11:42:07;2.95;;;0.90;;
6452;SDS011;3259;51.080;13.712;2023-08-06T11:44:56;1.45;;;0.88;;
6452;SDS011;3259;51.080;13.712;2023-08-06T11:47:49;4.03;;;0.80;;
6452;SDS011;3259;51.080;13.712;2023-08-06T11:50:41;0.45;;;0.40;;
6452;SDS011;3259;51.080;13.712;2023-08-06T11:53:31;3.05;;;0.70;;
6452;SDS011;3259;51.080;13.712;2023-08-06T11:56:20;2.35;;;0.80;;
6452;SDS011;3259;51.080;13.712;2023-08-06T11:59:08;2.00;;;0.85;;
6452;SDS011;3259;51.080;13.712;2023-08-06T12:02:01;1.95;;;0.90;;
6452;SDS011;3259;51.080;13.712;2023-08-06T12:05:01;1.48;;;0.73;;
6452;SDS011;3259;51.080;13.712;2023-08-06T12:07:55;2.08;;;0.68;;
6452;SDS011;3259;51.080;13.712;2023-08-06T12:10:45;0.55;;;0.55;;
6452;SDS011;3259;51.080;13.712;2023-08-06T12:13:34;0.73;;;0.73;;
6452;SDS011;3259;51.080;13.712;2023-08-06T12:16:23;0.50;;;0.50;;
6452;SDS011;3259;51.080;13.712;2023-08-06T12:19:12;2.95;;;0.70;;
6452;SDS011;3259;51.080;13.712;2023-08-06T12:22:01;3.65;;;1.13;;
6452;SDS011;3259;51.080;13.712;2023-08-06T12:24:51;0.60;;;0.60;;
6452;SDS011;3259;51.080;13.712;2023-08-06T12:27:41;0.47;;;0.47;;
6452;SDS011;3259;51.080;13.712;2023-08-06T12:30:31;2.33;;;0.80;;
6452;SDS011;3259;51.080;13.712;2023-08-06T12:33:19;1.33;;;1.23;;
6452;SDS011;3259;51.080;13.712;2023-08-06T12:36:08;0.75;;;0.60;;
6452;SDS011;3259;51.080;13.712;2023-08-06T12:38:57;2.15;;;0.90;;
6452;SDS011;3259;51.080;13.712;2023-08-06T12:41:47;1.40;;;1.40;;
6452;SDS011;3259;51.080;13.712;2023-08-06T12:44:36;1.15;;;1.15;;
6452;SDS011;3259;51.080;13.712;2023-08-06T12:47:24;1.70;;;1.05;;
6452;SDS011;3259;51.080;13.712;2023-08-06T12:50:13;2.88;;;1.10;;
6452;SDS011;3259;51.080;13.712;2023-08-06T12:53:04;2.30;;;1.42;;
6452;SDS011;3259;51.080;13.712;2023-08-06T12:55:52;1.20;;;1.20;;
6452;SDS011;3259;51.080;13.712;2023-08-06T12:58:45;1.63;;;1.52;;
6452;SDS011;3259;51.080;13.712;2023-08-06T13:01:34;3.20;;;1.08;;
6452;SDS011;3259;51.080;13.712;2023-08-06T13:04:23;2.90;;;0.98;;
6452;SDS011;3259;51.080;13.712;2023-08-06T13:07:12;4.03;;;1.10;;
6452;SDS011;3259;51.080;13.712;2023-08-06T13:10:01;1.75;;;1.40;;
6452;SDS011;3259;51.080;13.712;2023-08-06T13:12:50;1.25;;;1.20;;
6452;SDS011;3259;51.080;13.712;2023-08-06T13:15:40;1.27;;;1.15;;
6452;SDS011;3259;51.080;13.712;2023-08-06T13:18:29;1.00;;;0.90;;
6452;SDS011;3259;51.080;13.712;2023-08-06T13:21:18;1.27;;;1.15;;
6452;SDS011;3259;51.080;13.712;2023-08-06T13:24:07;1.60;;;1.50;;
6452;SDS011;3259;51.080;13.712;2023-08-06T13:26:56;1.08;;;0.98;;
6452;SDS011;3259;51.080;13.712;2023-08-06T13:29:45;0.93;;;0.93;;
6452;SDS011;3259;51.080;13.712;2023-08-06T13:32:35;0.95;;;0.90;;
6452;SDS011;3259;51.080;13.712;2023-08-06T13:35:24;1.20;;;1.10;;
6452;SDS011;3259;51.080;13.712;2023-08-06T13:38:13;0.90;;;0.80;;
6452;SDS011;3259;51.080;13.712;2023-08-06T13:41:02;0.80;;;0.77;;
6452;SDS011;3259;51.080;13.712;2023-08-06T13:43:52;0.57;;;0.57;;
6452;SDS011;3259;51.080;13.712;2023-08-06T13:46:41;2.45;;;0.70;;
6452;SDS011;3259;51.080;13.712;2023-08-06T13:49:32;1.02;;;0.93;;
6452;SDS011;3259;51.080;13.712;2023-08-06T13:52:25;1.30;;;0.75;;
6452;SDS011;3259;51.080;13.712;2023-08-06T13:55:15;0.73;;;0.73;;
6452;SDS011;3259;51.080;13.712;2023-08-06T13:58:03;0.70;;;0.70;;
6452;SDS011;3259;51.080;13.712;2023-08-06T14:00:52;0.60;;;0.60;;
6452;SDS011;3259;51.080;13.712;2023-08-06T14:03:42;0.68;;;0.68;;
6452;SDS011;3259;51.080;13.712;2023-08-06T14:06:32;1.52;;;0.80;;
6452;SDS011;3259;51.080;13.712;2023-08-06T14:09:21;0.95;;;0.65;;
6452;SDS011;3259;51.080;13.712;2023-08-06T14:12:10;0.73;;;0.73;;
6452;SDS011;3259;51.080;13.712;2023-08-06T14:14:59;1.52;;;0.63;;
6452;SDS011;3259;51.080;13.712;2023-08-06T14:17:48;1.20;;;0.82;;
6452;SDS011;3259;51.080;13.712;2023-08-06T14:20:37;2.80;;;0.75;;
6452;SDS011;3259;51.080;13.712;2023-08-06T14:23:28;1.02;;;0.90;;
6452;SDS011;3259;51.080;13.712;2023-08-06T14:26:16;0.68;;;0.60;;
6452;SDS011;3259;51.080;13.712;2023-08-06T14:29:05;0.80;;;0.80;;
6452;SDS011;3259;51.080;13.712;2023-08-06T14:31:54;0.55;;;0.50;;
6452;SDS011;3259;51.080;13.712;2023-08-06T14:34:43;1.02;;;0.90;;
6452;SDS011;3259;51.080;13.712;2023-08-06T14:37:32;0.60;;;0.60;;
6452;SDS011;3259;51.080;13.712;2023-08-06T14:40:23;0.73;;;0.73;;
6452;SDS011;3259;51.080;13.712;2023-08-06T14:43:15;2.53;;;0.73;;
6452;SDS011;3259;51.080;13.712;2023-08-06T14:46:04;0.82;;;0.80;;
6452;SDS011;3259;51.080;13.712;2023-08-06T14:48:52;0.93;;;0.80;;
6452;SDS011;3259;51.080;13.712;2023-08-06T14:51:41;0.75;;;0.75;;
6452;SDS011;3259;51.080;13.712;2023-08-06T14:54:30;1.58;;;0.80;;
6452;SDS011;3259;51.080;13.712;2023-08-06T14:57:20;2.58;;;1.23;;
6452;SDS011;3259;51.080;13.712;2023-08-06T15:00:14;1.35;;;0.90;;
6452;SDS011;3259;51.080;13.712;2023-08-06T15:03:03;0.60;;;0.60;;
6452;SDS011;3259;51.080;13.712;2023-08-06T15:05:52;0.82;;;0.82;;
6452;SDS011;3259;51.080;13.712;2023-08-06T15:08:40;1.10;;;1.00;;
6452;SDS011;3259;51.080;13.712;2023-08-06T15:11:33;2.08;;;0.75;;
6452;SDS011;3259;51.080;13.712;2023-08-06T15:14:23;0.77;;;0.77;;
6452;SDS011;3259;51.080;13.712;2023-08-06T15:17:12;5.57;;;0.85;;
6452;SDS011;3259;51.080;13.712;2023-08-06T15:20:01;2.65;;;0.93;;
6452;SDS011;3259;51.080;13.712;2023-08-06T15:22:50;2.42;;;1.30;;
6452;SDS011;3259;51.080;13.712;2023-08-06T15:25:39;1.65;;;1.05;;
6452;SDS011;3259;51.080;13.712;2023-08-06T15:28:27;1.20;;;1.20;;
6452;SDS011;3259;51.080;13.712;2023-08-06T15:31:20;1.08;;;1.02;;
6452;SDS011;3259;51.080;13.712;2023-08-06T15:34:09;1.13;;;1.02;;
6452;SDS011;3259;51.080;13.712;2023-08-06T15:36:57;1.15;;;1.15;;
6452;SDS011;3259;51.080;13.712;2023-08-06T15:39:46;1.67;;;1.35;;
6452;SDS011;3259;51.080;13.712;2023-08-06T15:42:35;1.30;;;1.30;;
6452;SDS011;3259;51.080;13.712;2023-08-06T15:45:23;1.02;;;0.80;;
6452;SDS011;3259;51.080;13.712;2023-08-06T15:48:14;3.25;;;1.75;;
6452;SDS011;3259;51.080;13.712;2023-08-06T15:51:03;1.58;;;1.48;;
6452;SDS011;3259;51.080;13.712;2023-08-06T15:53:52;1.50;;;1.50;;
6452;SDS011;3259;51.080;13.712;2023-08-06T15:56:41;1.77;;;1.67;;
6452;SDS011;3259;51.080;13.712;2023-08-06T15:59:30;1.10;;;1.10;;
6452;SDS011;3259;51.080;13.712;2023-08-06T16:02:19;3.65;;;1.70;;
6452;SDS011;3259;51.080;13.712;2023-08-06T16:05:12;1.95;;;1.40;;
6452;SDS011;3259;51.080;13.712;2023-08-06T16:08:01;1.75;;;1.60;;
6452;SDS011;3259;51.080;13.712;2023-08-06T16:10:51;1.67;;;1.42;;
6452;SDS011;3259;51.080;13.712;2023-08-06T16:13:41;3.30;;;2.30;;
6452;SDS011;3259;51.080;13.712;2023-08-06T16:16:30;2.95;;;1.77;;
6452;SDS011;3259;51.080;13.712;2023-08-06T16:19:19;2.80;;;1.98;;
6452;SDS011;3259;51.080;13.712;2023-08-06T16:22:09;2.17;;;1.92;;
6452;SDS011;3259;51.080;13.712;2023-08-06T16:24:58;1.70;;;1.70;;
6452;SDS011;3259;51.080;13.712;2023-08-06T16:27:47;2.90;;;1.95;;
6452;SDS011;3259;51.080;13.712;2023-08-06T16:30:35;1.70;;;1.60;;
6452;SDS011;3259;51.080;13.712;2023-08-06T16:33:24;2.97;;;1.65;;
6452;SDS011;3259;51.080;13.712;2023-08-06T16:36:13;1.75;;;1.65;;
6452;SDS011;3259;51.080;13.712;2023-08-06T16:39:03;4.28;;;1.83;;
6452;SDS011;3259;51.080;13.712;2023-08-06T16:41:51;5.90;;;1.88;;
6452;SDS011;3259;51.080;13.712;2023-08-06T16:44:40;2.67;;;1.70;;
6452;SDS011;3259;51.080;13.712;2023-08-06T16:47:29;2.13;;;1.92;;
6452;SDS011;3259;51.080;13.712;2023-08-06T16:50:18;2.78;;;2.00;;
6452;SDS011;3259;51.080;13.712;2023-08-06T16:53:06;3.88;;;2.17;;
6452;SDS011;3259;51.080;13.712;2023-08-06T16:55:57;4.80;;;2.13;;
6452;SDS011;3259;51.080;13.712;2023-08-06T16:58:47;3.00;;;1.88;;
6452;SDS011;3259;51.080;13.712;2023-08-06T17:01:36;4.22;;;1.70;;
6452;SDS011;3259;51.080;13.712;2023-08-06T17:04:26;4.68;;;2.42;;
6452;SDS011;3259;51.080;13.712;2023-08-06T17:07:15;2.25;;;2.15;;
6452;SDS011;3259;51.080;13.712;2023-08-06T17:10:04;2.80;;;1.85;;
6452;SDS011;3259;51.080;13.712;2023-08-06T17:12:54;2.38;;;2.03;;
6452;SDS011;3259;51.080;13.712;2023-08-06T17:16:03;2.60;;;2.40;;
6452;SDS011;3259;51.080;13.712;2023-08-06T17:18:52;5.10;;;2.05;;